createdAt,value
2017-11-05T00:00:03.004Z,223.63
2017-11-05T00:02:29.387Z,238.17
2017-11-05T00:04:56.524Z,322.63
2017-11-05T00:07:22.936Z,309.90
2017-11-05T00:09:49.363Z,288.67
2017-11-05T00:12:15.746Z,272.97
2017-11-05T00:14:42.893Z,180.37
2017-11-05T00:17:10.017Z,144.93
2017-11-05T00:19:36.406Z,178.73
2017-11-05T00:22:02.805Z,122.63
2017-11-05T00:24:29.187Z,165.03
2017-11-05T00:26:55.575Z,167.57
2017-11-05T00:29:22.875Z,132.20
2017-11-05T00:31:49.285Z,114.23
2017-11-05T00:34:15.686Z,110.87
2017-11-05T00:36:42.086Z,124.97
2017-11-05T00:39:08.474Z,105.17
2017-11-05T00:41:34.879Z,134.53
2017-11-05T00:44:02.038Z,140.33
2017-11-05T00:46:29.162Z,117.87
2017-11-05T00:48:55.543Z,105.10
2017-11-05T00:51:21.939Z,95.63
2017-11-05T00:53:48.324Z,110.27
2017-11-05T00:56:14.737Z,149.30
2017-11-05T00:58:41.142Z,120.43
2017-11-05T01:01:08.263Z,123.43
2017-11-05T01:03:34.674Z,192.03
2017-11-05T01:06:01.064Z,349.13
2017-11-05T01:08:28.195Z,134.13
2017-11-05T01:10:54.583Z,115.67
2017-11-05T01:13:21.003Z,90.70
2017-11-05T01:15:47.408Z,107.70
2017-11-05T01:18:14.543Z,88.57
2017-11-05T01:20:40.940Z,105.97
2017-11-05T01:23:07.356Z,115.70
2017-11-05T01:25:33.746Z,89.50
2017-11-05T01:28:00.880Z,111.53
2017-11-05T01:30:27.292Z,97.53
2017-11-05T01:32:53.691Z,100.97
2017-11-05T01:35:20.098Z,92.50
2017-11-05T01:37:47.235Z,100.40
2017-11-05T01:40:13.640Z,98.93
2017-11-05T01:42:40.065Z,85.20
2017-11-05T01:45:06.518Z,95.87
2017-11-05T01:47:32.899Z,87.00
2017-11-05T01:49:59.285Z,106.27
2017-11-05T01:52:25.718Z,83.43
2017-11-05T01:54:52.138Z,113.47
2017-11-05T01:57:18.589Z,87.13
2017-11-05T01:59:45.753Z,84.10
2017-11-05T02:02:12.923Z,74.73
2017-11-05T02:04:40.102Z,88.67
2017-11-05T02:07:06.544Z,88.57
2017-11-05T02:09:32.988Z,82.67
2017-11-05T02:11:59.431Z,99.63
2017-11-05T02:14:27.349Z,74.93
2017-11-05T02:16:53.867Z,76.93
2017-11-05T02:19:21.028Z,82.03
2017-11-05T02:21:47.465Z,81.53
2017-11-05T02:24:14.667Z,84.73
2017-11-05T02:26:41.108Z,74.23
2017-11-05T02:29:09.031Z,67.07
2017-11-05T02:31:35.489Z,78.53
2017-11-05T02:34:01.943Z,81.47
2017-11-05T02:36:29.851Z,88.27
2017-11-05T02:38:56.260Z,104.87
2017-11-05T02:41:23.382Z,79.33
2017-11-05T02:43:49.808Z,87.57
2017-11-05T02:46:16.256Z,88.07
2017-11-05T02:48:42.699Z,87.30
2017-11-05T02:51:09.899Z,74.93
2017-11-05T02:53:36.319Z,95.30
2017-11-05T02:56:02.759Z,103.73
2017-11-05T02:58:30.096Z,90.53
2017-11-05T03:00:57.257Z,99.03
2017-11-05T03:03:23.722Z,85.37
2017-11-05T03:05:50.166Z,92.53
2017-11-05T03:08:16.587Z,87.20
2017-11-05T03:10:43.016Z,117.40
2017-11-05T03:13:09.454Z,88.27
2017-11-05T03:15:35.897Z,119.97
2017-11-05T03:18:02.344Z,106.33
2017-11-05T03:20:28.805Z,111.87
2017-11-05T03:22:55.975Z,111.53
2017-11-05T03:25:22.412Z,95.93
2017-11-05T03:27:48.884Z,121.60
2017-11-05T03:30:15.320Z,191.70
2017-11-05T03:32:41.784Z,113.87
2017-11-05T03:35:08.977Z,173.20
2017-11-05T03:37:35.427Z,161.87
2017-11-05T03:40:01.883Z,169.00
2017-11-05T03:42:29.062Z,173.90
2017-11-05T03:44:56.215Z,155.43
2017-11-05T03:47:23.435Z,165.23
2017-11-05T03:49:49.907Z,214.70
2017-11-05T03:52:16.320Z,200.97
2017-11-05T03:54:43.470Z,310.30
2017-11-05T03:57:10.679Z,186.30
2017-11-05T03:59:37.067Z,273.57
2017-11-05T04:02:03.531Z,268.77
2017-11-05T04:04:29.992Z,209.83
2017-11-05T04:06:57.967Z,173.97
2017-11-05T04:09:25.875Z,295.00
2017-11-05T04:11:52.303Z,173.07
2017-11-05T04:14:18.751Z,220.73
2017-11-05T04:16:45.204Z,216.57
2017-11-05T04:19:11.645Z,219.33
2017-11-05T04:21:38.094Z,251.93
2017-11-05T04:24:04.515Z,303.23
2017-11-05T04:26:30.933Z,245.80
2017-11-05T04:28:57.372Z,178.50
2017-11-05T04:31:23.808Z,291.10
2017-11-05T04:33:50.235Z,231.33
2017-11-05T04:36:16.663Z,239.63
2017-11-05T04:38:43.083Z,257.37
2017-11-05T04:41:09.527Z,214.27
2017-11-05T04:43:35.942Z,295.63
2017-11-05T04:46:02.367Z,226.27
2017-11-05T04:48:29.055Z,192.67
2017-11-05T04:50:55.503Z,181.67
2017-11-05T04:53:23.387Z,216.70
2017-11-05T04:55:50.579Z,207.40
2017-11-05T04:58:17.036Z,187.73
2017-11-05T05:00:43.447Z,196.80
2017-11-05T05:03:09.892Z,201.20
2017-11-05T05:05:36.374Z,194.07
2017-11-05T05:08:02.818Z,196.67
2017-11-05T05:10:29.280Z,229.30
2017-11-05T05:12:55.725Z,222.97
2017-11-05T05:15:22.155Z,201.93
2017-11-05T05:17:48.614Z,201.00
2017-11-05T05:20:16.527Z,202.07
2017-11-05T05:22:42.950Z,204.17
2017-11-05T05:25:10.136Z,187.60
2017-11-05T05:27:36.572Z,170.40
2017-11-05T05:30:02.983Z,203.53
2017-11-05T05:32:29.458Z,180.03
2017-11-05T05:34:55.896Z,178.67
2017-11-05T05:37:22.333Z,221.17
2017-11-05T05:39:49.504Z,172.47
2017-11-05T05:42:16.666Z,165.23
2017-11-05T05:44:43.104Z,240.10
2017-11-05T05:47:09.533Z,228.03
2017-11-05T05:49:35.965Z,188.50
2017-11-05T05:52:02.406Z,353.50
2017-11-05T05:54:28.827Z,453.47
2017-11-05T05:56:55.234Z,193.43
2017-11-05T05:59:22.425Z,194.87
2017-11-05T06:01:48.846Z,149.83
2017-11-05T06:04:16.019Z,152.87
2017-11-05T06:06:42.460Z,174.47
2017-11-05T06:09:08.901Z,186.60
2017-11-05T06:11:35.319Z,198.13
2017-11-05T06:14:01.780Z,184.23
2017-11-05T06:16:28.223Z,184.87
2017-11-05T06:18:55.414Z,193.33
2017-11-05T06:21:22.591Z,165.73
2017-11-05T06:23:49.026Z,187.17
2017-11-05T06:26:15.481Z,167.60
2017-11-05T06:28:42.143Z,183.40
2017-11-05T06:31:09.298Z,203.20
2017-11-05T06:33:36.461Z,195.73
2017-11-05T06:36:03.635Z,170.70
2017-11-05T06:38:30.067Z,210.80
2017-11-05T06:40:56.510Z,148.43
2017-11-05T06:43:22.959Z,161.43
2017-11-05T06:45:49.396Z,153.77
2017-11-05T06:48:15.819Z,148.93
2017-11-05T06:50:42.248Z,175.17
2017-11-05T06:53:08.692Z,182.27
2017-11-05T06:55:35.124Z,165.10
2017-11-05T06:58:01.568Z,439.03
2017-11-05T07:00:28.004Z,211.10
2017-11-05T07:02:54.500Z,274.73
2017-11-05T07:05:20.921Z,190.97
2017-11-05T07:07:47.367Z,167.13
2017-11-05T07:10:19.703Z,155.33
2017-11-05T07:12:46.876Z,143.90
2017-11-05T07:15:13.293Z,133.37
2017-11-05T07:17:40.448Z,161.93
2017-11-05T07:20:07.602Z,161.77
2017-11-05T07:22:34.037Z,173.33
2017-11-05T07:25:00.488Z,170.40
2017-11-05T07:27:26.952Z,132.97
2017-11-05T07:29:53.592Z,143.30
2017-11-05T07:32:20.016Z,144.67
2017-11-05T07:34:46.456Z,146.43
2017-11-05T07:37:12.874Z,137.83
2017-11-05T07:39:39.294Z,190.97
2017-11-05T07:42:05.729Z,147.77
2017-11-05T07:44:32.162Z,215.50
2017-11-05T07:46:58.610Z,201.37
2017-11-05T07:49:25.065Z,202.47
2017-11-05T07:51:52.985Z,235.00
2017-11-05T07:54:19.905Z,182.67
2017-11-05T07:56:47.072Z,162.20
2017-11-05T07:59:13.520Z,194.73
2017-11-05T08:01:39.963Z,153.73
2017-11-05T08:04:06.423Z,161.87
2017-11-05T08:06:32.889Z,190.50
2017-11-05T08:08:59.337Z,197.30
2017-11-05T08:11:25.862Z,202.97
2017-11-05T08:13:53.040Z,238.53
2017-11-05T08:16:19.438Z,243.80
2017-11-05T08:18:46.632Z,227.37
2017-11-05T08:21:13.068Z,202.90
2017-11-05T08:23:39.499Z,177.03
2017-11-05T08:26:05.997Z,188.47
2017-11-05T08:28:32.415Z,169.57
2017-11-05T08:30:58.874Z,195.47
2017-11-05T08:33:25.351Z,194.53
2017-11-05T08:35:51.788Z,196.13
2017-11-05T08:38:18.230Z,758.60
2017-11-05T08:40:44.645Z,248.97
2017-11-05T08:43:11.085Z,176.50
2017-11-05T08:45:37.502Z,171.37
2017-11-05T08:48:04.013Z,136.30
2017-11-05T08:50:30.429Z,172.07
2017-11-05T08:52:57.584Z,185.77
2017-11-05T08:55:23.976Z,212.43
2017-11-05T08:57:51.144Z,160.60
2017-11-05T09:00:17.549Z,219.03
2017-11-05T09:02:43.991Z,174.60
2017-11-05T09:05:10.408Z,168.47
2017-11-05T09:07:36.837Z,203.50
2017-11-05T09:10:03.253Z,194.00
2017-11-05T09:12:29.698Z,291.63
2017-11-05T09:14:56.156Z,226.20
2017-11-05T09:17:24.092Z,174.27
2017-11-05T09:19:50.498Z,186.83
2017-11-05T09:22:17.665Z,201.80
2017-11-05T09:24:44.096Z,174.67
2017-11-05T09:27:10.509Z,174.70
2017-11-05T09:29:36.886Z,209.10
2017-11-05T09:32:03.347Z,152.57
2017-11-05T09:34:30.492Z,184.73
2017-11-05T09:36:56.864Z,174.63
2017-11-05T09:39:23.280Z,172.20
2017-11-05T09:41:49.680Z,155.57
2017-11-05T09:44:17.571Z,147.87
2017-11-05T09:46:44.708Z,179.83
2017-11-05T09:49:11.831Z,183.13
2017-11-05T09:51:38.247Z,247.63
2017-11-05T09:54:04.989Z,210.60
2017-11-05T09:56:31.393Z,217.73
2017-11-05T09:58:57.792Z,209.30
2017-11-05T10:01:24.183Z,159.33
2017-11-05T10:03:50.589Z,194.00
2017-11-05T10:06:16.999Z,213.60
2017-11-05T10:08:44.138Z,196.20
2017-11-05T10:11:10.537Z,159.67
2017-11-05T10:13:36.934Z,201.00
2017-11-05T10:16:03.316Z,197.83
2017-11-05T10:18:29.722Z,212.70
2017-11-05T10:20:56.133Z,244.27
2017-11-05T10:23:22.576Z,273.40
2017-11-05T10:25:48.971Z,256.47
2017-11-05T10:28:15.385Z,255.40
2017-11-05T10:30:41.791Z,218.07
2017-11-05T10:33:08.225Z,244.40
2017-11-05T10:35:34.627Z,207.83
2017-11-05T10:38:01.049Z,235.87
2017-11-05T10:40:28.207Z,193.70
2017-11-05T10:42:54.643Z,224.07
2017-11-05T10:45:21.071Z,174.83
2017-11-05T10:47:47.453Z,187.83
2017-11-05T10:50:13.859Z,157.83
2017-11-05T10:52:40.302Z,183.60
2017-11-05T10:55:08.227Z,172.20
2017-11-05T10:57:35.448Z,153.27
2017-11-05T11:00:03.379Z,210.50
2017-11-05T11:02:29.781Z,183.07
2017-11-05T11:04:56.778Z,219.37
2017-11-05T11:07:23.184Z,186.00
2017-11-05T11:09:50.913Z,177.90
2017-11-05T11:12:18.231Z,186.53
2017-11-05T11:14:44.595Z,174.47
2017-11-05T11:17:11.723Z,182.13
2017-11-05T11:19:39.606Z,178.00
2017-11-05T11:22:05.988Z,175.13
2017-11-05T11:24:32.384Z,175.47
2017-11-05T11:26:59.540Z,151.17
2017-11-05T11:29:25.960Z,174.20
2017-11-05T11:31:53.092Z,168.67
2017-11-05T11:34:19.485Z,183.10
2017-11-05T11:36:45.881Z,147.20
2017-11-05T11:39:13.021Z,178.53
2017-11-05T11:41:40.171Z,252.30
2017-11-05T11:44:07.323Z,215.53
2017-11-05T11:46:34.457Z,167.00
2017-11-05T11:49:00.851Z,154.37
2017-11-05T11:51:27.260Z,159.10
2017-11-05T11:53:53.659Z,130.93
2017-11-05T11:56:20.053Z,148.93
2017-11-05T11:58:46.448Z,128.83
2017-11-05T12:01:12.895Z,139.70
2017-11-05T12:03:39.302Z,134.07
2017-11-05T12:06:06.540Z,161.37
2017-11-05T12:08:32.960Z,152.27
2017-11-05T12:10:59.399Z,223.77
2017-11-05T12:13:27.294Z,149.33
2017-11-05T12:15:53.687Z,136.07
2017-11-05T12:18:20.052Z,132.30
2017-11-05T12:20:47.181Z,129.43
2017-11-05T12:23:13.567Z,162.40
2017-11-05T12:25:39.943Z,149.63
2017-11-05T12:28:07.850Z,143.83
2017-11-05T12:30:34.318Z,140.50
2017-11-05T12:33:00.731Z,133.67
2017-11-05T12:35:27.190Z,131.70
2017-11-05T12:37:53.604Z,137.70
2017-11-05T12:40:20.058Z,135.80
2017-11-05T12:42:46.469Z,114.10
2017-11-05T12:45:12.890Z,135.27
2017-11-05T12:47:39.354Z,156.67
2017-11-05T12:50:05.786Z,136.73
2017-11-05T12:52:32.223Z,140.77
2017-11-05T12:54:59.375Z,139.43
2017-11-05T12:57:25.883Z,132.03
2017-11-05T12:59:52.325Z,146.53
2017-11-05T13:02:18.769Z,125.13
2017-11-05T13:04:46.676Z,118.43
2017-11-05T13:07:13.804Z,119.43
2017-11-05T13:09:40.952Z,133.83
2017-11-05T13:12:08.844Z,139.23
2017-11-05T13:14:35.986Z,131.40
2017-11-05T13:17:02.424Z,129.77
2017-11-05T13:19:29.569Z,118.73
2017-11-05T13:21:56.693Z,124.80
2017-11-05T13:24:23.114Z,132.80
2017-11-05T13:26:49.609Z,122.90
2017-11-05T13:29:16.007Z,135.90
2017-11-05T13:31:42.423Z,129.40
2017-11-05T13:34:08.817Z,131.53
2017-11-05T13:36:35.239Z,119.00
2017-11-05T13:39:02.635Z,126.63
2017-11-05T13:41:29.042Z,118.83
2017-11-05T13:43:56.253Z,125.23
2017-11-05T13:46:23.441Z,106.70
2017-11-05T13:48:49.965Z,120.43
2017-11-05T13:51:16.554Z,113.30
2017-11-05T13:53:42.964Z,161.03
2017-11-05T13:56:09.394Z,120.73
2017-11-05T13:58:35.800Z,190.90
2017-11-05T14:01:02.199Z,328.87
2017-11-05T14:03:28.642Z,138.57
2017-11-05T14:05:55.032Z,136.90
2017-11-05T14:08:22.225Z,138.93
2017-11-05T14:10:49.350Z,125.73
2017-11-05T14:13:15.756Z,128.77
2017-11-05T14:15:42.171Z,124.80
2017-11-05T14:18:08.597Z,123.57
2017-11-05T14:20:35.081Z,123.00
2017-11-05T14:23:01.503Z,123.27
2017-11-05T14:25:27.892Z,129.23
2017-11-05T14:27:55.025Z,156.93
2017-11-05T14:30:22.188Z,131.70
2017-11-05T14:32:48.590Z,141.27
2017-11-05T14:35:14.979Z,151.37
2017-11-05T14:37:41.371Z,138.53
2017-11-05T14:40:07.802Z,109.80
2017-11-05T14:42:34.235Z,147.87
2017-11-05T14:45:01.412Z,110.23
2017-11-05T14:47:27.991Z,120.73
2017-11-05T14:49:54.883Z,133.80
2017-11-05T14:52:21.348Z,111.50
2017-11-05T14:54:47.782Z,117.40
2017-11-05T14:57:14.833Z,121.10
2017-11-05T14:59:41.318Z,109.07
2017-11-05T15:02:08.503Z,125.23
2017-11-05T15:04:34.961Z,116.37
2017-11-05T15:07:01.367Z,113.93
2017-11-05T15:09:27.757Z,107.47
2017-11-05T15:11:54.936Z,123.20
2017-11-05T15:14:21.395Z,121.70
2017-11-05T15:16:47.813Z,104.27
2017-11-05T15:19:14.234Z,118.30
2017-11-05T15:21:40.677Z,116.93
2017-11-05T15:24:07.101Z,102.87
2017-11-05T15:26:33.533Z,120.07
2017-11-05T15:28:59.997Z,102.97
2017-11-05T15:31:26.427Z,101.03
2017-11-05T15:33:52.867Z,134.33
2017-11-05T15:36:19.289Z,113.83
2017-11-05T15:38:45.743Z,108.57
2017-11-05T15:41:12.158Z,118.03
2017-11-05T15:43:38.621Z,101.80
2017-11-05T15:46:06.608Z,123.23
2017-11-05T15:48:33.815Z,109.40
2017-11-05T15:51:00.319Z,121.17
2017-11-05T15:53:26.829Z,115.43
2017-11-05T15:55:54.016Z,108.50
2017-11-05T15:58:20.506Z,114.97
2017-11-05T16:00:47.707Z,116.90
2017-11-05T16:03:14.117Z,114.50
2017-11-05T16:05:40.540Z,113.77
2017-11-05T16:08:07.694Z,115.73
2017-11-05T16:10:34.109Z,112.77
2017-11-05T16:13:00.536Z,113.63
2017-11-05T16:15:26.950Z,101.87
2017-11-05T16:17:53.440Z,111.63
2017-11-05T16:20:19.896Z,118.70
2017-11-05T16:22:46.310Z,127.40
2017-11-05T16:25:12.736Z,122.13
2017-11-05T16:27:39.133Z,124.00
2017-11-05T16:30:05.563Z,121.97
2017-11-05T16:32:31.947Z,117.83
2017-11-05T16:34:58.389Z,117.13
2017-11-05T16:37:24.836Z,124.13
2017-11-05T16:39:51.479Z,131.73
2017-11-05T16:42:17.888Z,116.43
2017-11-05T16:44:44.290Z,107.23
2017-11-05T16:47:11.428Z,126.67
2017-11-05T16:49:38.578Z,115.30
2017-11-05T16:52:05.699Z,123.47
2017-11-05T16:54:32.106Z,122.53
2017-11-05T16:56:58.525Z,126.17
2017-11-05T16:59:24.951Z,126.47
2017-11-05T17:01:51.353Z,122.27
2017-11-05T17:04:18.553Z,129.23
2017-11-05T17:06:44.972Z,107.80
2017-11-05T17:09:11.392Z,162.93
2017-11-05T17:11:37.817Z,130.97
2017-11-05T17:14:04.287Z,120.03
2017-11-05T17:16:30.725Z,107.73
2017-11-05T17:18:57.166Z,119.60
2017-11-05T17:21:23.599Z,129.20
2017-11-05T17:23:50.112Z,140.40
2017-11-05T17:26:16.607Z,118.70
2017-11-05T17:28:43.800Z,124.43
2017-11-05T17:31:10.266Z,138.83
2017-11-05T17:33:36.724Z,137.17
2017-11-05T17:36:03.899Z,125.03
2017-11-05T17:38:30.343Z,111.40
2017-11-05T17:40:56.723Z,116.00
2017-11-05T17:43:23.885Z,114.97
2017-11-05T17:45:51.036Z,110.37
2017-11-05T17:48:18.185Z,124.07
2017-11-05T17:50:45.367Z,124.97
2017-11-05T17:53:11.775Z,132.07
2017-11-05T17:55:38.940Z,136.60
2017-11-05T17:58:05.340Z,120.57
2017-11-05T18:00:31.787Z,159.37
2017-11-05T18:02:58.935Z,132.63
2017-11-05T18:05:26.078Z,126.20
2017-11-05T18:07:52.485Z,139.97
2017-11-05T18:10:18.884Z,133.10
2017-11-05T18:12:45.317Z,159.10
2017-11-05T18:15:11.731Z,155.67
2017-11-05T18:17:38.922Z,134.60
2017-11-05T18:20:05.355Z,147.60
2017-11-05T18:22:31.756Z,137.63
2017-11-05T18:24:58.539Z,139.07
2017-11-05T18:27:26.428Z,132.40
2017-11-05T18:29:53.591Z,138.10
2017-11-05T18:32:20.740Z,518.93
2017-11-05T18:34:47.898Z,147.00
2017-11-05T18:37:15.070Z,150.43
2017-11-05T18:39:41.472Z,224.93
2017-11-05T18:42:08.672Z,203.73
2017-11-05T18:44:35.084Z,185.73
2017-11-05T18:47:01.509Z,135.90
2017-11-05T18:49:27.915Z,125.43
2017-11-05T18:51:55.058Z,139.30
2017-11-05T18:54:22.220Z,136.40
2017-11-05T18:56:49.377Z,128.03
2017-11-05T18:59:15.828Z,124.70
2017-11-05T19:01:42.278Z,143.50
2017-11-05T19:04:08.707Z,126.23
2017-11-05T19:06:35.372Z,137.17
2017-11-05T19:09:01.784Z,142.83
2017-11-05T19:11:28.178Z,120.30
2017-11-05T19:13:54.621Z,137.87
2017-11-05T19:16:21.069Z,151.17
2017-11-05T19:18:47.490Z,159.53
2017-11-05T19:21:13.913Z,143.90
2017-11-05T19:23:41.045Z,130.47
2017-11-05T19:26:08.171Z,129.83
2017-11-05T19:28:34.565Z,138.17
2017-11-05T19:31:00.971Z,388.77
2017-11-05T19:33:28.205Z,277.23
2017-11-05T19:35:54.587Z,190.90
2017-11-05T19:38:20.980Z,210.43
2017-11-05T19:40:48.125Z,211.50
2017-11-05T19:43:15.247Z,161.60
2017-11-05T19:45:41.648Z,153.17
2017-11-05T19:48:08.046Z,142.00
2017-11-05T19:50:35.175Z,140.10
2017-11-05T19:53:03.044Z,132.83
2017-11-05T19:55:30.209Z,129.70
2017-11-05T19:57:57.319Z,127.07
2017-11-05T20:00:23.754Z,112.50
2017-11-05T20:02:50.196Z,134.80
2017-11-05T20:05:16.599Z,147.17
2017-11-05T20:07:42.996Z,139.87
2017-11-05T20:10:10.148Z,139.90
2017-11-05T20:12:37.286Z,173.07
2017-11-05T20:15:03.733Z,131.90
2017-11-05T20:17:30.889Z,123.40
2017-11-05T20:19:57.257Z,118.20
2017-11-05T20:22:23.655Z,138.37
2017-11-05T20:24:50.778Z,120.57
2017-11-05T20:27:17.168Z,110.13
2017-11-05T20:29:43.545Z,108.93
2017-11-05T20:32:09.927Z,111.90
2017-11-05T20:34:36.301Z,104.07
2017-11-05T20:37:04.163Z,101.50
2017-11-05T20:39:30.557Z,98.83
2017-11-05T20:41:56.949Z,91.10
2017-11-05T20:44:24.073Z,85.23
2017-11-05T20:46:50.469Z,90.53
2017-11-05T20:49:16.870Z,103.13
2017-11-05T20:51:43.264Z,81.47
2017-11-05T20:54:10.439Z,86.53
2017-11-05T20:56:37.621Z,94.53
2017-11-05T20:59:04.025Z,85.97
2017-11-05T21:01:31.176Z,93.20
2017-11-05T21:03:58.308Z,88.73
2017-11-05T21:06:25.502Z,90.47
2017-11-05T21:08:51.901Z,90.63
2017-11-05T21:11:19.040Z,80.67
2017-11-05T21:13:45.417Z,90.23
2017-11-05T21:16:11.833Z,92.27
2017-11-05T21:18:38.247Z,96.03
2017-11-05T21:21:04.679Z,90.70
2017-11-05T21:23:31.822Z,83.90
2017-11-05T21:25:58.950Z,80.83
2017-11-05T21:28:25.355Z,78.57
2017-11-05T21:30:51.723Z,71.87
2017-11-05T21:33:18.095Z,69.80
2017-11-05T21:35:44.487Z,68.03
2017-11-05T21:38:12.379Z,70.30
2017-11-05T21:40:39.492Z,53.13
2017-11-05T21:43:05.872Z,48.73
2017-11-05T21:45:33.011Z,52.30
2017-11-05T21:48:00.127Z,28.40
2017-11-05T21:50:26.511Z,32.40
2017-11-05T21:52:52.905Z,26.50
2017-11-05T21:55:20.763Z,27.90
2017-11-05T21:57:47.146Z,28.23
2017-11-05T22:00:13.569Z,26.87
2017-11-05T22:02:39.967Z,21.63
2017-11-05T22:05:06.398Z,19.27
2017-11-05T22:07:32.768Z,18.07
2017-11-05T22:09:59.139Z,13.43
2017-11-05T22:12:25.556Z,11.00
2017-11-05T22:14:51.997Z,11.63
2017-11-05T22:17:18.375Z,9.53
2017-11-05T22:19:45.491Z,10.67
2017-11-05T22:22:11.982Z,10.17
2017-11-05T22:24:38.433Z,8.23
2017-11-05T22:27:04.846Z,11.37
2017-11-05T22:29:31.245Z,9.50
2017-11-05T22:31:57.632Z,10.43
2017-11-05T22:34:24.015Z,8.43
2017-11-05T22:36:51.154Z,5.90
2017-11-05T22:39:19.020Z,6.73
2017-11-05T22:41:45.450Z,5.30
2017-11-05T22:44:11.851Z,4.90
2017-11-05T22:46:38.400Z,5.00
2017-11-05T22:49:04.763Z,3.53
2017-11-05T22:51:31.152Z,6.37
2017-11-05T22:53:57.533Z,4.00
2017-11-05T22:56:23.972Z,3.83
2017-11-05T22:58:51.130Z,4.23
2017-11-05T23:01:18.293Z,5.83
2017-11-05T23:03:44.683Z,3.40
2017-11-05T23:06:11.077Z,4.83
2017-11-05T23:08:37.475Z,3.57
2017-11-05T23:11:04.604Z,3.83
2017-11-05T23:13:31.781Z,5.50
2017-11-05T23:15:58.172Z,5.40
2017-11-05T23:18:26.041Z,3.60
2017-11-05T23:20:53.941Z,2.87
2017-11-05T23:23:21.056Z,2.40
2017-11-05T23:25:48.175Z,3.00
2017-11-05T23:28:14.832Z,3.10
2017-11-05T23:30:41.240Z,3.40
2017-11-05T23:33:07.645Z,2.67
2017-11-05T23:35:34.036Z,2.37
2017-11-05T23:38:00.406Z,2.20
2017-11-05T23:40:27.561Z,2.40
2017-11-05T23:42:53.961Z,1.90
2017-11-05T23:45:20.424Z,2.33
2017-11-05T23:47:47.555Z,2.53
2017-11-05T23:50:14.688Z,2.27
2017-11-05T23:52:41.812Z,2.00
2017-11-05T23:55:08.206Z,2.03
2017-11-05T23:57:34.578Z,1.77
